createdAt,value
2022-10-18T00:02:11.161Z,15.93
2022-10-18T00:04:33.145Z,15.94
2022-10-18T00:06:54.914Z,15.94
2022-10-18T00:09:17.205Z,15.92
2022-10-18T00:11:39.296Z,15.91
2022-10-18T00:14:01.206Z,15.90
2022-10-18T00:16:23.532Z,15.90
2022-10-18T00:18:45.731Z,15.89
2022-10-18T00:21:13.800Z,15.91
2022-10-18T00:23:36.370Z,15.91
2022-10-18T00:26:03.009Z,15.91
2022-10-18T00:28:24.858Z,15.90
2022-10-18T00:30:46.672Z,15.91
2022-10-18T00:33:08.460Z,15.90
2022-10-18T00:35:30.262Z,15.90
2022-10-18T00:37:52.081Z,15.90
2022-10-18T00:40:13.899Z,15.89
2022-10-18T00:42:37.876Z,15.89
2022-10-18T00:45:24.273Z,15.89
2022-10-18T00:47:57.831Z,15.87
2022-10-18T00:50:23.109Z,15.87
2022-10-18T00:52:54.355Z,15.88
2022-10-18T00:55:16.255Z,15.87
2022-10-18T00:57:42.650Z,15.88
2022-10-18T01:00:09.817Z,15.88
2022-10-18T01:02:32.853Z,15.89
2022-10-18T01:04:55.028Z,15.89
2022-10-18T01:08:00.218Z,15.89
2022-10-18T01:10:37.985Z,15.89
2022-10-18T01:13:25.973Z,15.89
2022-10-18T01:15:59.512Z,15.89
2022-10-18T01:18:35.926Z,15.88
2022-10-18T01:21:45.568Z,15.84
2022-10-18T01:24:30.887Z,15.81
2022-10-18T01:27:11.255Z,15.77
2022-10-18T01:30:09.972Z,15.77
2022-10-18T01:32:42.412Z,15.76
2022-10-18T01:35:14.088Z,15.74
2022-10-18T01:37:38.865Z,15.72
2022-10-18T01:40:08.911Z,15.70
2022-10-18T01:42:31.883Z,15.70
2022-10-18T01:44:54.925Z,15.72
2022-10-18T01:47:19.227Z,15.73
2022-10-18T01:49:41.235Z,15.73
2022-10-18T01:52:03.423Z,15.74
2022-10-18T01:54:34.686Z,15.75
2022-10-18T01:57:16.521Z,15.76
2022-10-18T02:00:19.189Z,15.76
2022-10-18T02:03:10.927Z,15.77
2022-10-18T02:05:57.571Z,15.75
2022-10-18T02:08:28.433Z,15.73
2022-10-18T02:11:08.999Z,15.73
2022-10-18T02:13:40.304Z,15.73
2022-10-18T02:16:10.368Z,15.74
2022-10-18T02:18:41.485Z,15.75
2022-10-18T02:21:08.243Z,15.76
2022-10-18T02:23:32.544Z,15.76
2022-10-18T02:25:54.922Z,15.74
2022-10-18T02:28:16.901Z,15.73
2022-10-18T02:30:57.242Z,15.71
2022-10-18T02:33:33.245Z,15.69
2022-10-18T02:36:06.395Z,15.70
2022-10-18T02:38:31.633Z,15.71
2022-10-18T02:40:53.488Z,15.72
2022-10-18T02:43:15.236Z,15.73
2022-10-18T02:45:37.833Z,15.74
2022-10-18T02:47:59.703Z,15.74
2022-10-18T02:50:21.588Z,15.73
2022-10-18T02:52:43.417Z,15.73
2022-10-18T02:55:07.320Z,15.71
2022-10-18T02:57:30.545Z,15.69
2022-10-18T02:59:52.800Z,15.69
2022-10-18T03:02:14.577Z,15.70
2022-10-18T03:04:36.313Z,15.69
2022-10-18T03:06:58.090Z,15.66
2022-10-18T03:09:19.890Z,15.65
2022-10-18T03:11:41.669Z,15.64
2022-10-18T03:14:03.442Z,15.63
2022-10-18T03:16:25.495Z,15.65
2022-10-18T03:18:47.491Z,15.64
2022-10-18T03:21:10.478Z,15.65
2022-10-18T03:23:32.345Z,15.65
2022-10-18T03:25:54.105Z,15.67
2022-10-18T03:28:15.887Z,15.68
2022-10-18T03:30:38.955Z,15.69
2022-10-18T03:33:00.821Z,15.70
2022-10-18T03:35:22.789Z,15.70
2022-10-18T03:37:44.599Z,15.71
2022-10-18T03:40:07.759Z,15.72
2022-10-18T03:42:30.021Z,15.72
2022-10-18T03:44:52.161Z,15.74
2022-10-18T03:47:14.061Z,15.74
2022-10-18T03:49:35.883Z,15.73
2022-10-18T03:51:57.659Z,15.74
2022-10-18T03:54:19.678Z,15.72
2022-10-18T03:56:41.435Z,15.72
2022-10-18T03:59:04.530Z,15.73
2022-10-18T04:01:26.407Z,15.75
2022-10-18T04:03:48.312Z,15.74
2022-10-18T04:06:10.164Z,15.73
2022-10-18T04:08:31.958Z,15.70
2022-10-18T04:10:53.866Z,15.68
2022-10-18T04:13:15.668Z,15.65
2022-10-18T04:15:38.007Z,15.65
2022-10-18T04:18:01.121Z,15.65
2022-10-18T04:20:24.864Z,15.66
2022-10-18T04:22:51.144Z,15.66
2022-10-18T04:25:12.881Z,15.65
2022-10-18T04:27:35.229Z,15.66
2022-10-18T04:29:57.232Z,15.66
2022-10-18T04:32:18.987Z,15.66
2022-10-18T04:34:40.793Z,15.69
2022-10-18T04:37:02.615Z,15.71
2022-10-18T04:39:24.458Z,15.71
2022-10-18T04:41:46.195Z,15.70
2022-10-18T04:44:08.341Z,15.67
2022-10-18T04:46:30.108Z,15.65
2022-10-18T04:48:51.946Z,15.63
2022-10-18T04:51:13.773Z,15.65
2022-10-18T04:53:35.567Z,15.65
2022-10-18T04:55:57.384Z,15.63
2022-10-18T04:58:19.281Z,15.63
2022-10-18T05:00:42.134Z,15.63
2022-10-18T05:03:04.079Z,15.63
2022-10-18T05:05:37.911Z,15.63
2022-10-18T05:08:07.928Z,15.60
2022-10-18T05:10:29.886Z,15.59
2022-10-18T05:12:51.709Z,15.58
2022-10-18T05:15:13.472Z,15.58
2022-10-18T05:17:35.348Z,15.56
2022-10-18T05:19:57.076Z,15.57
2022-10-18T05:22:18.830Z,15.59
2022-10-18T05:24:40.535Z,15.57
2022-10-18T05:27:02.336Z,15.55
2022-10-18T05:29:24.860Z,15.54
2022-10-18T05:31:49.239Z,15.52
2022-10-18T05:34:11.040Z,15.52
2022-10-18T05:36:32.828Z,15.52
2022-10-18T05:38:56.256Z,15.50
2022-10-18T05:41:18.735Z,15.47
2022-10-18T05:43:41.159Z,15.44
2022-10-18T05:46:04.847Z,15.44
2022-10-18T05:48:26.691Z,15.44
2022-10-18T05:50:48.540Z,15.45
2022-10-18T05:53:12.349Z,15.44
2022-10-18T05:55:40.313Z,15.44
2022-10-18T05:58:03.210Z,15.43
2022-10-18T06:00:25.093Z,15.44
2022-10-18T06:02:46.947Z,15.43
2022-10-18T06:05:09.097Z,15.42
2022-10-18T06:07:31.351Z,15.41
2022-10-18T06:09:53.275Z,15.40
2022-10-18T06:12:15.107Z,15.38
2022-10-18T06:14:37.897Z,15.38
2022-10-18T06:16:59.674Z,15.35
2022-10-18T06:19:21.526Z,15.35
2022-10-18T06:21:44.319Z,15.33
2022-10-18T06:24:06.627Z,15.32
2022-10-18T06:26:28.847Z,15.31
2022-10-18T06:28:50.965Z,15.29
2022-10-18T06:31:14.946Z,15.29
2022-10-18T06:33:37.388Z,15.27
2022-10-18T06:36:06.871Z,15.28
2022-10-18T06:38:30.548Z,15.26
2022-10-18T06:40:53.723Z,15.26
2022-10-18T06:43:21.202Z,15.24
2022-10-18T06:45:43.467Z,15.20
2022-10-18T06:48:05.688Z,15.18
2022-10-18T06:50:27.643Z,15.16
2022-10-18T06:52:51.172Z,15.17
2022-10-18T06:55:13.103Z,15.17
2022-10-18T06:57:34.972Z,15.14
2022-10-18T06:59:57.005Z,15.13
2022-10-18T07:02:19.007Z,15.10
2022-10-18T07:04:40.831Z,15.09
2022-10-18T07:07:02.629Z,15.05
2022-10-18T07:09:24.479Z,15.02
2022-10-18T07:11:46.289Z,15.03
2022-10-18T07:14:09.560Z,14.98
2022-10-18T07:16:34.650Z,14.97
2022-10-18T07:18:56.808Z,14.98
2022-10-18T07:21:25.535Z,15.02
2022-10-18T07:23:48.202Z,15.06
2022-10-18T07:26:27.423Z,15.10
2022-10-18T07:28:57.989Z,15.12
2022-10-18T07:31:20.999Z,15.12
2022-10-18T07:33:45.545Z,15.10
2022-10-18T07:36:08.910Z,15.09
2022-10-18T07:38:30.915Z,15.06
2022-10-18T07:40:58.575Z,15.08
2022-10-18T07:43:20.372Z,15.08
2022-10-18T07:45:53.031Z,15.11
2022-10-18T07:48:14.770Z,15.10
2022-10-18T07:50:36.707Z,15.08
2022-10-18T07:52:58.452Z,15.06
2022-10-18T07:55:20.267Z,15.09
2022-10-18T07:57:42.058Z,15.10
2022-10-18T08:00:04.702Z,15.08
2022-10-18T08:02:33.288Z,15.08
2022-10-18T08:04:55.155Z,15.09
2022-10-18T08:07:16.956Z,15.11
2022-10-18T08:09:39.338Z,15.13
2022-10-18T08:12:01.107Z,15.17
2022-10-18T08:14:22.994Z,15.14
2022-10-18T08:16:44.810Z,15.12
2022-10-18T08:19:06.641Z,15.13
2022-10-18T08:21:28.511Z,15.21
2022-10-18T08:23:50.524Z,15.30
2022-10-18T08:26:16.839Z,15.37
2022-10-18T08:28:39.338Z,15.40
2022-10-18T08:31:11.413Z,15.50
2022-10-18T08:33:35.776Z,15.55
2022-10-18T08:36:00.173Z,15.52
2022-10-18T08:38:21.947Z,15.49
2022-10-18T08:40:44.458Z,15.49
2022-10-18T08:43:21.988Z,15.46
2022-10-18T08:45:44.324Z,15.44
2022-10-18T08:48:08.541Z,15.45
2022-10-18T08:50:36.864Z,15.46
2022-10-18T08:53:19.810Z,15.47
2022-10-18T08:55:47.568Z,15.50
2022-10-18T08:58:26.797Z,15.59
2022-10-18T09:01:30.518Z,15.66
2022-10-18T09:04:23.249Z,15.74
2022-10-18T09:07:18.601Z,15.90
2022-10-18T09:10:18.508Z,16.12
2022-10-18T09:13:20.460Z,16.13
2022-10-18T09:16:02.938Z,16.24
2022-10-18T09:18:51.492Z,16.32
2022-10-18T09:21:29.838Z,16.42
2022-10-18T09:24:12.639Z,16.56
2022-10-18T09:26:47.337Z,16.72
2022-10-18T09:30:05.853Z,16.84
2022-10-18T09:32:45.717Z,16.99
2022-10-18T09:35:25.772Z,17.14
2022-10-18T09:37:49.349Z,17.22
2022-10-18T09:40:28.189Z,17.26
2022-10-18T09:43:06.292Z,17.30
2022-10-18T09:45:34.665Z,17.37
2022-10-18T09:48:13.175Z,17.42
2022-10-18T09:50:48.849Z,17.45
2022-10-18T09:53:15.380Z,17.50
2022-10-18T09:55:55.245Z,17.52
2022-10-18T09:58:20.442Z,17.53
2022-10-18T10:00:50.332Z,17.62
2022-10-18T10:03:14.844Z,17.69
2022-10-18T10:05:36.547Z,17.79
2022-10-18T10:07:59.986Z,17.83
2022-10-18T10:10:25.891Z,17.84
2022-10-18T10:12:49.313Z,17.84
2022-10-18T10:15:23.259Z,17.86
2022-10-18T10:17:54.260Z,17.88
2022-10-18T10:20:23.495Z,17.92
2022-10-18T10:22:49.897Z,17.98
2022-10-18T10:25:30.846Z,18.01
2022-10-18T10:27:53.379Z,18.04
2022-10-18T10:30:38.288Z,18.08
2022-10-18T10:33:00.474Z,18.13
2022-10-18T10:35:55.554Z,18.17
2022-10-18T10:38:27.463Z,18.20
2022-10-18T10:40:50.843Z,18.26
2022-10-18T10:43:39.284Z,18.33
2022-10-18T10:46:18.929Z,18.36
2022-10-18T10:49:09.591Z,18.41
2022-10-18T10:51:40.242Z,18.42
2022-10-18T10:54:24.454Z,18.46
2022-10-18T10:57:12.690Z,18.49
2022-10-18T10:59:45.340Z,18.54
2022-10-18T11:02:19.300Z,18.60
2022-10-18T11:04:42.747Z,18.69
2022-10-18T11:07:11.413Z,18.73
2022-10-18T11:09:56.063Z,18.74
2022-10-18T11:12:37.849Z,18.78
2022-10-18T11:15:15.739Z,18.75
2022-10-18T11:18:15.789Z,18.77
2022-10-18T11:20:58.235Z,18.79
2022-10-18T11:23:21.769Z,18.80
2022-10-18T11:25:57.650Z,18.86
2022-10-18T11:29:13.785Z,18.91
2022-10-18T11:31:59.213Z,18.92
2022-10-18T11:34:20.930Z,18.92
2022-10-18T11:37:27.163Z,18.97
2022-10-18T11:40:22.763Z,19.03
2022-10-18T11:43:34.417Z,19.03
2022-10-18T11:46:27.826Z,18.99
2022-10-18T11:49:23.916Z,19.00
2022-10-18T11:52:23.959Z,19.03
2022-10-18T11:55:05.515Z,19.07
2022-10-18T11:58:13.299Z,19.07
2022-10-18T12:00:39.634Z,19.08
2022-10-18T12:03:04.388Z,19.11
2022-10-18T12:05:29.135Z,19.13
2022-10-18T12:08:13.633Z,19.19
2022-10-18T12:10:52.830Z,19.22
2022-10-18T12:14:03.734Z,19.25
2022-10-18T12:16:50.388Z,19.32
2022-10-18T12:19:27.040Z,19.38
2022-10-18T12:21:51.377Z,19.37
2022-10-18T12:24:20.691Z,19.37
2022-10-18T12:26:42.840Z,19.36
2022-10-18T12:29:39.642Z,19.39
2022-10-18T12:32:27.772Z,19.41
2022-10-18T12:34:58.060Z,19.40
2022-10-18T12:37:54.537Z,19.40
2022-10-18T12:40:48.602Z,19.41
2022-10-18T12:43:22.665Z,19.40
2022-10-18T12:45:55.400Z,19.43
2022-10-18T12:48:28.928Z,19.41
2022-10-18T12:51:19.381Z,19.44
2022-10-18T12:53:45.922Z,19.46
2022-10-18T12:56:29.717Z,19.52
2022-10-18T12:58:51.528Z,19.53
2022-10-18T13:01:13.421Z,19.57
2022-10-18T13:03:55.054Z,19.57
2022-10-18T13:06:17.079Z,19.57
2022-10-18T13:08:42.805Z,19.56
2022-10-18T13:11:10.714Z,19.57
2022-10-18T13:14:05.968Z,19.57
2022-10-18T13:16:40.941Z,19.57
2022-10-18T13:19:33.869Z,19.56
2022-10-18T13:22:52.773Z,19.58
2022-10-18T13:25:32.682Z,19.59
2022-10-18T13:28:16.429Z,19.57
2022-10-18T13:31:12.868Z,19.53
2022-10-18T13:33:40.088Z,19.58
2022-10-18T13:36:23.035Z,19.63
2022-10-18T13:38:57.744Z,19.63
2022-10-18T13:41:46.939Z,19.61
2022-10-18T13:44:39.883Z,19.60
2022-10-18T13:47:04.720Z,19.61
2022-10-18T13:49:38.481Z,19.62
2022-10-18T13:52:21.457Z,19.61
2022-10-18T13:54:51.033Z,19.60
2022-10-18T13:57:32.006Z,19.60
2022-10-18T14:00:31.416Z,19.58
2022-10-18T14:03:58.093Z,19.56
2022-10-18T14:06:29.814Z,19.48
2022-10-18T14:09:32.924Z,19.44
2022-10-18T14:12:35.399Z,19.40
2022-10-18T14:15:26.715Z,19.40
2022-10-18T14:17:56.447Z,19.38
2022-10-18T14:20:48.706Z,19.35
2022-10-18T14:23:19.856Z,19.32
2022-10-18T14:25:42.238Z,19.33
2022-10-18T14:28:12.865Z,19.33
2022-10-18T14:30:36.458Z,19.31
2022-10-18T14:32:59.589Z,19.31
2022-10-18T14:35:39.645Z,19.28
2022-10-18T14:38:02.525Z,19.24
2022-10-18T14:40:29.183Z,19.23
2022-10-18T14:42:50.966Z,19.20
2022-10-18T14:45:20.038Z,19.18
2022-10-18T14:47:41.855Z,19.18
2022-10-18T14:50:03.783Z,19.16
2022-10-18T14:52:35.616Z,19.15
2022-10-18T14:54:59.749Z,19.13
2022-10-18T14:57:36.313Z,19.13
2022-10-18T15:00:17.567Z,19.07
2022-10-18T15:02:39.892Z,19.02
2022-10-18T15:05:21.841Z,18.99
2022-10-18T15:07:45.081Z,18.95
2022-10-18T15:10:16.401Z,18.89
2022-10-18T15:13:08.337Z,18.85
2022-10-18T15:15:31.019Z,18.81
2022-10-18T15:17:54.139Z,18.78
2022-10-18T15:20:32.767Z,18.74
2022-10-18T15:23:15.048Z,18.70
2022-10-18T15:25:37.172Z,18.63
2022-10-18T15:28:01.350Z,18.60
2022-10-18T15:30:30.056Z,18.57
2022-10-18T15:33:04.253Z,18.54
2022-10-18T15:35:33.188Z,18.48
2022-10-18T15:37:58.899Z,18.45
2022-10-18T15:40:23.685Z,18.42
2022-10-18T15:42:46.160Z,18.38
2022-10-18T15:45:38.476Z,18.33
2022-10-18T15:48:06.412Z,18.26
2022-10-18T15:51:08.356Z,18.22
2022-10-18T15:53:54.758Z,18.16
2022-10-18T15:56:35.276Z,18.08
2022-10-18T15:59:00.918Z,18.01
2022-10-18T16:01:44.778Z,17.95
2022-10-18T16:04:20.237Z,17.88
2022-10-18T16:06:42.076Z,17.81
2022-10-18T16:09:04.112Z,17.76
2022-10-18T16:11:26.511Z,17.72
2022-10-18T16:13:49.333Z,17.67
2022-10-18T16:16:20.472Z,17.62
2022-10-18T16:18:42.278Z,17.54
2022-10-18T16:21:04.247Z,17.49
2022-10-18T16:23:30.794Z,17.41
2022-10-18T16:25:52.770Z,17.35
2022-10-18T16:28:18.128Z,17.26
2022-10-18T16:30:40.292Z,17.17
2022-10-18T16:33:02.090Z,17.09
2022-10-18T16:35:24.317Z,17.02
2022-10-18T16:37:46.109Z,16.95
2022-10-18T16:40:37.670Z,16.84
2022-10-18T16:43:02.897Z,16.73
2022-10-18T16:45:24.874Z,16.64
2022-10-18T16:47:46.724Z,16.55
2022-10-18T16:50:17.521Z,16.48
2022-10-18T16:52:39.486Z,16.38
2022-10-18T16:55:01.309Z,16.29
2022-10-18T16:57:23.267Z,16.21
2022-10-18T16:59:45.032Z,16.12
2022-10-18T17:02:09.261Z,16.03
2022-10-18T17:04:31.086Z,15.92
2022-10-18T17:06:57.626Z,15.82
2022-10-18T17:09:19.463Z,15.74
2022-10-18T17:11:41.955Z,15.66
2022-10-18T17:14:03.875Z,15.57
2022-10-18T17:16:35.512Z,15.48
2022-10-18T17:19:01.416Z,15.38
2022-10-18T17:21:26.021Z,15.31
2022-10-18T17:23:48.446Z,15.21
2022-10-18T17:26:28.285Z,15.11
2022-10-18T17:28:52.609Z,15.03
2022-10-18T17:31:15.208Z,14.97
2022-10-18T17:33:37.616Z,14.91
2022-10-18T17:35:59.546Z,14.84
2022-10-18T17:38:21.339Z,14.77
2022-10-18T17:40:43.515Z,14.72
2022-10-18T17:43:05.274Z,14.65
2022-10-18T17:45:27.413Z,14.58
2022-10-18T17:47:49.444Z,14.51
2022-10-18T17:50:11.854Z,14.46
2022-10-18T17:52:33.752Z,14.42
2022-10-18T17:54:55.660Z,14.40
2022-10-18T17:57:18.647Z,14.36
2022-10-18T17:59:40.382Z,14.29
2022-10-18T18:02:02.255Z,14.25
2022-10-18T18:04:25.708Z,14.19
2022-10-18T18:06:49.051Z,14.08
2022-10-18T18:09:15.280Z,13.94
2022-10-18T18:11:40.093Z,13.83
2022-10-18T18:14:02.256Z,13.76
2022-10-18T18:16:27.865Z,13.70
2022-10-18T18:18:52.773Z,13.65
2022-10-18T18:21:14.808Z,13.61
2022-10-18T18:23:36.877Z,13.61
2022-10-18T18:25:59.946Z,13.60
2022-10-18T18:28:21.838Z,13.58
2022-10-18T18:30:43.766Z,13.56
2022-10-18T18:33:05.697Z,13.52
2022-10-18T18:35:27.578Z,13.52
2022-10-18T18:37:52.653Z,13.51
2022-10-18T18:40:14.423Z,13.49
2022-10-18T18:42:36.396Z,13.46
2022-10-18T18:44:58.294Z,13.44
2022-10-18T18:47:23.238Z,13.39
2022-10-18T18:49:45.133Z,13.36
2022-10-18T18:52:07.458Z,13.31
2022-10-18T18:54:30.491Z,13.28
2022-10-18T18:56:52.328Z,13.22
2022-10-18T18:59:15.309Z,13.17
2022-10-18T19:01:37.997Z,13.14
2022-10-18T19:04:00.691Z,13.08
2022-10-18T19:06:31.127Z,13.03
2022-10-18T19:09:00.154Z,12.99
2022-10-18T19:11:22.976Z,12.95
2022-10-18T19:13:45.762Z,12.92
2022-10-18T19:16:31.723Z,12.87
2022-10-18T19:19:05.230Z,12.81
2022-10-18T19:21:32.626Z,12.75
2022-10-18T19:23:56.116Z,12.69
2022-10-18T19:26:55.849Z,12.67
2022-10-18T19:29:27.803Z,12.60
2022-10-18T19:31:53.436Z,12.57
2022-10-18T19:34:16.573Z,12.54
2022-10-18T19:36:40.679Z,12.50
2022-10-18T19:39:03.681Z,12.45
2022-10-18T19:41:28.280Z,12.41
2022-10-18T19:43:51.474Z,12.36
2022-10-18T19:46:13.274Z,12.30
2022-10-18T19:48:35.043Z,12.26
2022-10-18T19:50:57.652Z,12.23
2022-10-18T19:53:19.621Z,12.19
2022-10-18T19:55:41.464Z,12.14
2022-10-18T19:58:03.430Z,12.06
2022-10-18T20:00:25.291Z,12.03
2022-10-18T20:02:47.178Z,12.01
2022-10-18T20:05:09.658Z,11.97
2022-10-18T20:07:31.568Z,11.96
2022-10-18T20:09:53.384Z,11.93
2022-10-18T20:12:15.213Z,11.91
2022-10-18T20:14:36.986Z,11.86
2022-10-18T20:16:58.914Z,11.86
2022-10-18T20:19:20.765Z,11.84
2022-10-18T20:21:42.583Z,11.83
2022-10-18T20:24:06.133Z,11.79
2022-10-18T20:26:28.230Z,11.77
2022-10-18T20:28:59.812Z,11.72
2022-10-18T20:31:27.513Z,11.69
2022-10-18T20:33:59.869Z,11.64
2022-10-18T20:36:22.113Z,11.63
2022-10-18T20:38:46.923Z,11.62
2022-10-18T20:41:13.646Z,11.59
2022-10-18T20:43:36.158Z,11.56
2022-10-18T20:45:59.691Z,11.53
2022-10-18T20:48:21.708Z,11.47
2022-10-18T20:50:43.562Z,11.43
2022-10-18T20:53:05.401Z,11.42
2022-10-18T20:55:29.477Z,11.38
2022-10-18T20:57:51.334Z,11.32
2022-10-18T21:00:14.096Z,11.28
2022-10-18T21:02:35.892Z,11.25
2022-10-18T21:04:57.983Z,11.19
2022-10-18T21:07:19.840Z,11.10
2022-10-18T21:09:41.653Z,11.06
2022-10-18T21:12:03.717Z,11.02
2022-10-18T21:14:26.721Z,11.00
2022-10-18T21:16:50.036Z,10.99
2022-10-18T21:19:25.280Z,10.96
2022-10-18T21:21:50.616Z,10.91
2022-10-18T21:24:13.955Z,10.88
2022-10-18T21:26:37.022Z,10.85
2022-10-18T21:29:00.242Z,10.81
2022-10-18T21:31:28.560Z,10.77
2022-10-18T21:34:03.568Z,10.73
2022-10-18T21:36:29.811Z,10.67
2022-10-18T21:38:53.187Z,10.62
2022-10-18T21:41:17.961Z,10.59
2022-10-18T21:43:46.920Z,10.56
2022-10-18T21:46:10.268Z,10.53
2022-10-18T21:48:32.063Z,10.49
2022-10-18T21:50:54.170Z,10.47
2022-10-18T21:53:16.642Z,10.46
2022-10-18T21:55:38.475Z,10.45
2022-10-18T21:58:00.276Z,10.41
2022-10-18T22:00:22.113Z,10.39
2022-10-18T22:02:43.858Z,10.37
2022-10-18T22:05:08.357Z,10.33
2022-10-18T22:07:33.531Z,10.30
2022-10-18T22:09:55.610Z,10.29
2022-10-18T22:12:17.426Z,10.25
2022-10-18T22:14:39.234Z,10.22
2022-10-18T22:17:01.157Z,10.20
2022-10-18T22:19:22.963Z,10.18
2022-10-18T22:21:44.745Z,10.16
2022-10-18T22:24:09.029Z,10.12
2022-10-18T22:26:35.484Z,10.08
2022-10-18T22:29:04.589Z,10.03
2022-10-18T22:31:31.045Z,9.97
2022-10-18T22:34:00.278Z,9.94
2022-10-18T22:36:23.188Z,9.91
2022-10-18T22:38:44.930Z,9.88
2022-10-18T22:41:12.215Z,9.84
2022-10-18T22:43:35.237Z,9.82
2022-10-18T22:46:04.126Z,9.79
2022-10-18T22:48:25.943Z,9.77
2022-10-18T22:50:47.663Z,9.76
2022-10-18T22:53:09.487Z,9.77
2022-10-18T22:55:31.374Z,9.74
2022-10-18T22:57:56.206Z,9.72
2022-10-18T23:00:17.994Z,9.69
2022-10-18T23:02:39.913Z,9.65
2022-10-18T23:05:01.731Z,9.63
2022-10-18T23:07:23.603Z,9.61
2022-10-18T23:09:45.393Z,9.56
2022-10-18T23:12:07.227Z,9.53
2022-10-18T23:14:29.024Z,9.50
2022-10-18T23:16:50.840Z,9.47
2022-10-18T23:19:16.706Z,9.47
2022-10-18T23:21:38.529Z,9.43
2022-10-18T23:24:00.383Z,9.42
2022-10-18T23:26:27.843Z,9.40
2022-10-18T23:28:52.200Z,9.35
2022-10-18T23:31:24.388Z,9.31
2022-10-18T23:33:50.313Z,9.26
2022-10-18T23:36:12.631Z,9.24
2022-10-18T23:38:36.059Z,9.21
2022-10-18T23:40:58.400Z,9.20
2022-10-18T23:43:20.146Z,9.18
2022-10-18T23:45:42.478Z,9.17
2022-10-18T23:48:04.333Z,9.15
2022-10-18T23:50:26.106Z,9.15
2022-10-18T23:52:47.907Z,9.12
2022-10-18T23:55:09.739Z,9.10
2022-10-18T23:57:31.840Z,9.08
2022-10-18T23:59:53.880Z,9.04
